createdAt,value
2023-12-23T00:01:41.915Z,97856.84
2023-12-23T00:04:10.258Z,97852.02
2023-12-23T00:06:40.845Z,97840.39
2023-12-23T00:09:09.785Z,97843.00
2023-12-23T00:11:37.997Z,97851.02
2023-12-23T00:14:06.768Z,97846.83
2023-12-23T00:16:35.629Z,97862.06
2023-12-23T00:19:05.574Z,97853.04
2023-12-23T00:21:34.507Z,97853.21
2023-12-23T00:24:03.441Z,97862.77
2023-12-23T00:26:31.923Z,97864.75
2023-12-23T00:29:00.431Z,97867.20
2023-12-23T00:31:28.875Z,97861.75
2023-12-23T00:33:57.376Z,97865.73
2023-12-23T00:36:25.845Z,97877.08
2023-12-23T00:38:54.503Z,97878.90
2023-12-23T00:41:24.346Z,97888.96
2023-12-23T00:43:53.056Z,97898.98
2023-12-23T00:46:21.825Z,97897.00
2023-12-23T00:48:50.408Z,97886.10
2023-12-23T00:51:19.406Z,97874.65
2023-12-23T00:53:49.083Z,97873.45
2023-12-23T00:56:24.519Z,97888.84
2023-12-23T00:58:53.070Z,97891.36
2023-12-23T01:01:21.634Z,97907.69
2023-12-23T01:03:50.125Z,97895.13
2023-12-23T01:06:18.486Z,97904.46
2023-12-23T01:08:46.952Z,97902.52
2023-12-23T01:11:15.606Z,97907.48
2023-12-23T01:13:44.349Z,97915.83
2023-12-23T01:16:12.898Z,97924.45
2023-12-23T01:18:42.033Z,97919.48
2023-12-23T01:21:10.687Z,97919.39
2023-12-23T01:23:38.822Z,97929.13
2023-12-23T01:26:10.212Z,97936.01
2023-12-23T01:28:38.698Z,97944.55
2023-12-23T01:31:07.079Z,97948.71
2023-12-23T01:33:35.835Z,97941.94
2023-12-23T01:36:06.990Z,97956.27
2023-12-23T01:38:36.099Z,97958.33
2023-12-23T01:41:05.235Z,97956.83
2023-12-23T01:43:33.593Z,97953.87
2023-12-23T01:46:03.494Z,97969.59
2023-12-23T01:48:37.702Z,97975.52
2023-12-23T01:51:06.284Z,97978.60
2023-12-23T01:53:35.284Z,97986.27
2023-12-23T01:56:04.192Z,97978.05
2023-12-23T01:58:33.382Z,97991.90
2023-12-23T02:01:02.024Z,97993.65
2023-12-23T02:03:32.992Z,97995.65
2023-12-23T02:06:01.430Z,98009.95
2023-12-23T02:08:39.814Z,98013.02
2023-12-23T02:13:55.340Z,98025.46
2023-12-23T02:16:24.488Z,98035.04
2023-12-23T02:18:53.030Z,98037.23
2023-12-23T02:21:21.314Z,98035.16
2023-12-23T02:23:51.834Z,98030.44
2023-12-23T02:26:23.755Z,98034.46
2023-12-23T02:28:53.984Z,98043.52
2023-12-23T02:31:23.088Z,98052.09
2023-12-23T02:33:52.315Z,98059.52
2023-12-23T02:36:22.439Z,98060.47
2023-12-23T02:38:51.565Z,98056.44
2023-12-23T02:41:20.019Z,98066.44
2023-12-23T02:43:49.553Z,98067.52
2023-12-23T02:46:17.730Z,98083.70
2023-12-23T02:48:46.252Z,98080.96
2023-12-23T02:51:14.789Z,98083.23
2023-12-23T02:53:43.057Z,98079.12
2023-12-23T02:56:11.453Z,98089.29
2023-12-23T02:58:40.266Z,98091.12
2023-12-23T03:01:09.521Z,98103.34
2023-12-23T03:03:38.168Z,98107.84
2023-12-23T03:06:06.615Z,98121.46
2023-12-23T03:08:37.931Z,98128.15
2023-12-23T03:11:06.356Z,98127.01
2023-12-23T03:13:36.242Z,98126.39
2023-12-23T03:16:15.942Z,98129.52
2023-12-23T03:18:45.021Z,98142.45
2023-12-23T03:21:13.571Z,98146.61
2023-12-23T03:23:42.455Z,98159.29
2023-12-23T03:26:11.855Z,98167.79
2023-12-23T03:28:40.241Z,98174.45
2023-12-23T03:31:09.521Z,98184.69
2023-12-23T03:33:38.012Z,98190.52
2023-12-23T03:36:09.422Z,98194.38
2023-12-23T03:38:37.743Z,98211.90
2023-12-23T03:41:05.933Z,98214.37
2023-12-23T03:43:34.103Z,98222.70
2023-12-23T03:46:02.667Z,98229.40
2023-12-23T03:48:31.082Z,98237.30
2023-12-23T03:50:59.635Z,98240.36
2023-12-23T03:53:28.053Z,98251.49
2023-12-23T03:55:56.475Z,98258.85
2023-12-23T03:58:24.789Z,98258.66
2023-12-23T04:00:53.812Z,98255.46
2023-12-23T04:03:22.094Z,98264.30
2023-12-23T04:05:50.532Z,98279.33
2023-12-23T04:08:19.077Z,98278.66
2023-12-23T04:10:47.807Z,98292.23
2023-12-23T04:13:18.225Z,98295.25
2023-12-23T04:15:46.631Z,98310.42
2023-12-23T04:18:15.355Z,98323.79
2023-12-23T04:20:43.878Z,98334.86
2023-12-23T04:23:12.353Z,98334.27
2023-12-23T04:25:40.758Z,98348.34
2023-12-23T04:28:09.388Z,98355.95
2023-12-23T04:30:38.115Z,98359.91
2023-12-23T04:33:06.852Z,98370.64
2023-12-23T04:35:35.398Z,98361.05
2023-12-23T04:38:04.047Z,98368.83
2023-12-23T04:40:32.529Z,98364.45
2023-12-23T04:43:01.385Z,98376.05
2023-12-23T04:45:30.115Z,98381.04
2023-12-23T04:47:58.640Z,98386.91
2023-12-23T04:50:27.227Z,98377.51
2023-12-23T04:52:55.656Z,98386.91
2023-12-23T04:55:27.109Z,98394.13
2023-12-23T04:57:55.825Z,98407.68
2023-12-23T05:00:24.167Z,98406.16
2023-12-23T05:02:52.994Z,98411.36
2023-12-23T05:05:21.591Z,98418.94
2023-12-23T05:07:54.227Z,98429.09
2023-12-23T05:10:23.221Z,98443.11
2023-12-23T05:12:52.141Z,98444.29
2023-12-23T05:15:20.797Z,98449.02
2023-12-23T05:17:49.772Z,98452.37
2023-12-23T05:20:18.353Z,98452.38
2023-12-23T05:22:46.858Z,98454.83
2023-12-23T05:25:15.437Z,98455.59
2023-12-23T05:27:43.923Z,98457.56
2023-12-23T05:30:13.465Z,98461.27
2023-12-23T05:32:41.860Z,98473.31
2023-12-23T05:35:10.466Z,98476.64
2023-12-23T05:37:39.115Z,98472.11
2023-12-23T05:40:09.213Z,98480.09
2023-12-23T05:42:37.526Z,98480.66
2023-12-23T05:45:06.866Z,98502.35
2023-12-23T05:47:35.361Z,98503.45
2023-12-23T05:50:03.936Z,98505.65
2023-12-23T05:52:33.699Z,98506.02
2023-12-23T05:55:02.837Z,98500.76
2023-12-23T05:57:31.463Z,98495.41
2023-12-23T05:59:59.922Z,98504.48
2023-12-23T06:02:30.082Z,98511.52
2023-12-23T06:04:59.511Z,98497.52
2023-12-23T06:07:27.814Z,98499.38
2023-12-23T06:09:56.718Z,98509.58
2023-12-23T06:12:25.381Z,98518.06
2023-12-23T06:14:57.514Z,98516.52
2023-12-23T06:17:27.275Z,98513.81
2023-12-23T06:19:55.892Z,98512.21
2023-12-23T06:22:24.448Z,98510.67
2023-12-23T06:24:53.015Z,98521.11
2023-12-23T06:27:21.395Z,98524.35
2023-12-23T06:29:49.694Z,98523.19
2023-12-23T06:32:18.384Z,98520.27
2023-12-23T06:34:47.395Z,98521.27
2023-12-23T06:37:15.839Z,98523.01
2023-12-23T06:39:44.217Z,98528.60
2023-12-23T06:42:13.309Z,98529.02
2023-12-23T06:44:41.910Z,98536.88
2023-12-23T06:47:10.500Z,98534.52
2023-12-23T06:49:39.686Z,98532.50
2023-12-23T06:52:08.673Z,98535.37
2023-12-23T06:54:37.590Z,98536.65
2023-12-23T06:57:06.854Z,98537.71
2023-12-23T06:59:35.444Z,98539.09
2023-12-23T07:02:04.072Z,98524.15
2023-12-23T07:04:33.347Z,98532.04
2023-12-23T07:07:01.966Z,98527.79
2023-12-23T07:09:30.719Z,98525.62
2023-12-23T07:11:59.710Z,98535.93
2023-12-23T07:14:28.903Z,98524.46
2023-12-23T07:16:57.538Z,98513.85
2023-12-23T07:19:26.653Z,98511.31
2023-12-23T07:21:56.047Z,98509.52
2023-12-23T07:24:24.966Z,98523.10
2023-12-23T07:26:53.761Z,98519.90
2023-12-23T07:29:23.062Z,98520.54
2023-12-23T07:31:52.066Z,98514.79
2023-12-23T07:34:20.446Z,98512.60
2023-12-23T07:36:48.856Z,98516.13
2023-12-23T07:39:18.960Z,98507.49
2023-12-23T07:41:47.436Z,98508.02
2023-12-23T07:44:16.045Z,98507.66
2023-12-23T07:46:44.579Z,98510.20
2023-12-23T07:49:14.197Z,98508.42
2023-12-23T07:51:43.182Z,98503.38
2023-12-23T07:54:11.730Z,98499.16
2023-12-23T07:56:40.246Z,98499.46
2023-12-23T07:59:08.766Z,98494.01
2023-12-23T08:01:47.297Z,98486.52
2023-12-23T08:04:17.306Z,98495.50
2023-12-23T08:06:45.962Z,98481.66
2023-12-23T08:09:14.752Z,98478.05
2023-12-23T08:11:44.076Z,98477.52
2023-12-23T08:14:13.387Z,98479.11
2023-12-23T08:16:42.674Z,98475.74
2023-12-23T08:19:11.245Z,98478.67
2023-12-23T08:21:39.912Z,98467.70
2023-12-23T08:24:08.712Z,98471.79
2023-12-23T08:26:37.913Z,98464.10
2023-12-23T08:29:06.525Z,98465.43
2023-12-23T08:31:35.318Z,98466.80
2023-12-23T08:34:04.026Z,98458.92
2023-12-23T08:36:32.742Z,98464.41
2023-12-23T08:39:01.549Z,98462.94
2023-12-23T08:41:30.222Z,98454.69
2023-12-23T08:43:58.798Z,98456.44
2023-12-23T08:46:29.507Z,98456.20
2023-12-23T08:48:59.521Z,98440.89
2023-12-23T08:51:33.409Z,98451.91
2023-12-23T08:54:02.408Z,98452.53
2023-12-23T08:56:31.091Z,98450.52
2023-12-23T08:58:59.978Z,98451.48
2023-12-23T09:01:28.715Z,98456.11
2023-12-23T09:03:57.294Z,98463.34
2023-12-23T09:06:25.774Z,98451.47
2023-12-23T09:08:58.939Z,98458.35
2023-12-23T09:11:27.766Z,98461.27
2023-12-23T09:13:56.376Z,98457.23
2023-12-23T09:16:25.224Z,98453.50
2023-12-23T09:18:54.027Z,98454.27
2023-12-23T09:21:23.208Z,98446.54
2023-12-23T09:23:52.105Z,98452.27
2023-12-23T09:26:20.948Z,98461.04
2023-12-23T09:28:49.706Z,98464.73
2023-12-23T09:31:18.901Z,98460.26
2023-12-23T09:33:49.021Z,98460.58
2023-12-23T09:36:18.644Z,98459.75
2023-12-23T09:38:48.131Z,98462.55
2023-12-23T09:41:17.552Z,98451.23
2023-12-23T09:43:46.413Z,98452.85
2023-12-23T09:46:18.252Z,98458.02
2023-12-23T09:48:48.554Z,98449.11
2023-12-23T09:51:21.498Z,98445.08
2023-12-23T09:53:55.780Z,98441.64
2023-12-23T09:56:28.931Z,98442.11
2023-12-23T09:58:58.553Z,98439.14
2023-12-23T10:01:27.964Z,98437.16
2023-12-23T10:03:56.894Z,98430.49
2023-12-23T10:06:25.651Z,98426.44
2023-12-23T10:08:54.987Z,98423.31
2023-12-23T10:11:26.041Z,98418.65
2023-12-23T10:13:55.153Z,98423.16
2023-12-23T10:16:24.210Z,98419.26
2023-12-23T10:18:52.816Z,98414.09
2023-12-23T10:21:22.301Z,98410.67
2023-12-23T10:23:50.763Z,98422.80
2023-12-23T10:26:19.712Z,98415.14
2023-12-23T10:28:55.302Z,98416.30
2023-12-23T10:31:27.954Z,98420.12
2023-12-23T10:34:08.711Z,98424.34
2023-12-23T10:36:42.548Z,98424.42
2023-12-23T10:39:19.160Z,98417.86
2023-12-23T10:41:57.268Z,98418.42
2023-12-23T10:44:28.426Z,98416.80
2023-12-23T10:46:57.936Z,98414.14
2023-12-23T10:49:28.051Z,98414.77
2023-12-23T10:51:57.823Z,98410.89
2023-12-23T10:54:29.327Z,98414.92
2023-12-23T10:57:00.808Z,98402.17
2023-12-23T10:59:30.082Z,98402.46
2023-12-23T11:02:02.272Z,98403.05
2023-12-23T11:04:31.221Z,98398.63
2023-12-23T11:07:03.192Z,98401.41
2023-12-23T11:09:33.077Z,98405.45
2023-12-23T11:12:02.071Z,98408.96
2023-12-23T11:14:30.780Z,98414.64
2023-12-23T11:16:59.678Z,98414.30
2023-12-23T11:19:28.924Z,98416.77
2023-12-23T11:22:22.933Z,98410.55
2023-12-23T11:24:52.221Z,98405.68
2023-12-23T11:27:35.568Z,98408.72
2023-12-23T11:30:09.601Z,98401.20
2023-12-23T11:32:43.292Z,98405.03
2023-12-23T11:35:14.178Z,98402.78
2023-12-23T11:37:55.833Z,98397.83
2023-12-23T11:40:24.717Z,98396.13
2023-12-23T11:42:54.328Z,98395.94
2023-12-23T11:45:23.716Z,98396.73
2023-12-23T11:47:53.318Z,98391.09
2023-12-23T11:50:22.367Z,98391.16
2023-12-23T11:52:52.336Z,98391.72
2023-12-23T11:55:22.107Z,98389.83
2023-12-23T11:57:51.529Z,98393.04
2023-12-23T12:00:21.060Z,98400.48
2023-12-23T12:02:50.793Z,98402.95
2023-12-23T12:05:20.969Z,98403.63
2023-12-23T12:07:51.054Z,98400.98
2023-12-23T12:10:20.616Z,98398.66
2023-12-23T12:12:50.832Z,98397.68
2023-12-23T12:15:19.862Z,98404.00
2023-12-23T12:17:50.499Z,98404.23
2023-12-23T12:20:22.219Z,98400.48
2023-12-23T12:22:54.504Z,98402.64
2023-12-23T12:25:28.117Z,98391.87
2023-12-23T12:28:00.591Z,98398.41
2023-12-23T12:30:31.245Z,98398.15
2023-12-23T12:33:02.109Z,98388.64
2023-12-23T12:35:32.984Z,98386.63
2023-12-23T12:38:11.402Z,98381.92
2023-12-23T12:40:47.439Z,98388.33
2023-12-23T12:43:17.668Z,98384.27
2023-12-23T12:45:50.399Z,98379.99
2023-12-23T12:48:23.078Z,98380.30
2023-12-23T12:50:56.852Z,98384.70
2023-12-23T12:53:31.916Z,98387.05
2023-12-23T12:56:14.024Z,98389.59
2023-12-23T12:58:47.114Z,98392.78
2023-12-23T13:01:19.633Z,98393.70
2023-12-23T13:03:51.978Z,98396.39
2023-12-23T13:06:24.304Z,98401.49
2023-12-23T13:08:54.428Z,98401.23
2023-12-23T13:11:26.305Z,98406.34
2023-12-23T13:13:58.397Z,98415.73
2023-12-23T13:16:29.756Z,98419.84
2023-12-23T13:19:01.374Z,98418.80
2023-12-23T13:21:32.284Z,98425.44
2023-12-23T13:24:03.276Z,98428.21
2023-12-23T13:26:32.934Z,98433.67
2023-12-23T13:29:01.611Z,98436.95
2023-12-23T13:31:31.515Z,98436.02
2023-12-23T13:34:02.172Z,98438.69
2023-12-23T13:36:53.486Z,98439.46
2023-12-23T13:39:24.866Z,98444.00
2023-12-23T13:41:53.799Z,98451.02
2023-12-23T13:44:23.737Z,98451.02
2023-12-23T13:46:55.761Z,98452.45
2023-12-23T13:49:25.010Z,98461.23
2023-12-23T13:51:54.297Z,98464.08
2023-12-23T13:54:24.562Z,98477.73
2023-12-23T13:56:53.799Z,98481.74
2023-12-23T13:59:23.148Z,98483.23
2023-12-23T14:01:53.174Z,98487.14
2023-12-23T14:04:22.118Z,98495.41
2023-12-23T14:06:51.503Z,98497.66
2023-12-23T14:09:21.133Z,98497.81
2023-12-23T14:11:50.326Z,98500.90
2023-12-23T14:14:20.360Z,98499.77
2023-12-23T14:16:50.422Z,98506.61
2023-12-23T14:19:20.639Z,98508.58
2023-12-23T14:21:49.688Z,98508.80
2023-12-23T14:24:19.474Z,98516.83
2023-12-23T14:26:49.281Z,98518.40
2023-12-23T14:29:19.719Z,98524.11
2023-12-23T14:31:50.087Z,98532.85
2023-12-23T14:34:19.523Z,98535.02
2023-12-23T14:36:50.173Z,98537.59
2023-12-23T14:39:24.585Z,98543.05
2023-12-23T14:41:54.268Z,98544.76
2023-12-23T14:44:23.499Z,98545.60
2023-12-23T14:46:53.608Z,98541.61
2023-12-23T14:49:24.331Z,98544.84
2023-12-23T14:51:53.521Z,98556.69
2023-12-23T14:54:22.600Z,98562.63
2023-12-23T14:56:51.413Z,98570.89
2023-12-23T14:59:20.454Z,98573.01
2023-12-23T15:01:49.935Z,98574.92
2023-12-23T15:04:19.271Z,98575.11
2023-12-23T15:06:49.420Z,98576.40
2023-12-23T15:09:18.641Z,98575.72
2023-12-23T15:11:48.533Z,98578.63
2023-12-23T15:14:17.449Z,98583.98
2023-12-23T15:16:46.657Z,98588.36
2023-12-23T15:19:16.039Z,98592.59
2023-12-23T15:21:45.942Z,98598.98
2023-12-23T15:24:15.553Z,98600.29
2023-12-23T15:26:45.073Z,98608.17
2023-12-23T15:29:14.368Z,98608.83
2023-12-23T15:31:43.613Z,98608.23
2023-12-23T15:34:12.661Z,98613.42
2023-12-23T15:36:41.801Z,98617.38
2023-12-23T15:39:11.288Z,98614.77
2023-12-23T15:41:41.052Z,98605.41
2023-12-23T15:44:10.420Z,98602.31
2023-12-23T15:46:39.941Z,98612.09
2023-12-23T15:49:10.164Z,98621.13
2023-12-23T15:51:39.708Z,98622.06
2023-12-23T15:54:11.500Z,98630.40
2023-12-23T15:56:40.925Z,98631.41
2023-12-23T15:59:10.530Z,98631.31
2023-12-23T16:01:39.369Z,98640.44
2023-12-23T16:04:08.784Z,98648.31
2023-12-23T16:06:38.013Z,98662.65
2023-12-23T16:09:06.651Z,98668.52
2023-12-23T16:11:38.466Z,98672.05
2023-12-23T16:14:08.159Z,98669.19
2023-12-23T16:16:37.336Z,98669.74
2023-12-23T16:19:06.537Z,98669.40
2023-12-23T16:21:35.652Z,98668.29
2023-12-23T16:24:05.537Z,98669.66
2023-12-23T16:26:35.141Z,98676.89
2023-12-23T16:29:04.696Z,98684.96
2023-12-23T16:31:33.700Z,98688.44
2023-12-23T16:34:03.259Z,98682.78
2023-12-23T16:36:32.922Z,98686.64
2023-12-23T16:39:02.042Z,98691.11
2023-12-23T16:41:31.471Z,98691.10
2023-12-23T16:44:00.874Z,98694.65
2023-12-23T16:46:30.337Z,98695.02
2023-12-23T16:48:59.564Z,98696.79
2023-12-23T16:51:28.718Z,98698.73
2023-12-23T16:53:58.320Z,98698.59
2023-12-23T16:56:27.536Z,98695.66
2023-12-23T16:58:56.452Z,98702.31
2023-12-23T17:01:25.967Z,98703.54
2023-12-23T17:03:55.175Z,98707.21
2023-12-23T17:06:24.752Z,98713.00
2023-12-23T17:08:54.572Z,98715.25
2023-12-23T17:11:24.459Z,98727.71
2023-12-23T17:13:53.656Z,98735.70
2023-12-23T17:16:22.756Z,98734.93
2023-12-23T17:18:52.224Z,98743.98
2023-12-23T17:21:21.989Z,98749.40
2023-12-23T17:23:51.682Z,98746.64
2023-12-23T17:26:21.045Z,98745.10
2023-12-23T17:28:50.358Z,98744.79
2023-12-23T17:31:20.208Z,98744.83
2023-12-23T17:33:50.457Z,98751.83
2023-12-23T17:36:23.705Z,98750.00
2023-12-23T17:38:53.343Z,98753.38
2023-12-23T17:41:23.487Z,98753.08
2023-12-23T17:43:53.208Z,98752.88
2023-12-23T17:46:22.654Z,98756.66
2023-12-23T17:48:51.890Z,98760.69
2023-12-23T17:51:24.739Z,98762.30
2023-12-23T17:53:55.005Z,98770.41
2023-12-23T17:56:24.548Z,98774.83
2023-12-23T17:58:53.995Z,98777.88
2023-12-23T18:01:23.414Z,98778.25
2023-12-23T18:03:52.374Z,98780.72
2023-12-23T18:06:23.118Z,98787.81
2023-12-23T18:08:52.202Z,98790.75
2023-12-23T18:11:21.746Z,98786.73
2023-12-23T18:13:51.108Z,98788.59
2023-12-23T18:16:20.625Z,98788.73
2023-12-23T18:18:50.212Z,98790.15
2023-12-23T18:21:19.413Z,98793.35
2023-12-23T18:23:48.624Z,98795.52
2023-12-23T18:26:17.621Z,98799.30
2023-12-23T18:28:46.402Z,98800.09
2023-12-23T18:31:16.110Z,98797.41
2023-12-23T18:33:44.887Z,98792.20
2023-12-23T18:36:13.879Z,98787.64
2023-12-23T18:38:42.488Z,98787.84
2023-12-23T18:41:12.438Z,98792.17
2023-12-23T18:43:41.269Z,98794.48
2023-12-23T18:46:10.871Z,98801.14
2023-12-23T18:48:42.644Z,98801.62
2023-12-23T18:51:11.956Z,98803.30
2023-12-23T18:53:42.172Z,98802.34
2023-12-23T18:56:11.590Z,98805.79
2023-12-23T18:58:41.605Z,98811.61
2023-12-23T19:01:10.619Z,98816.38
2023-12-23T19:03:40.200Z,98819.98
2023-12-23T19:06:09.287Z,98823.40
2023-12-23T19:08:39.536Z,98824.84
2023-12-23T19:11:09.808Z,98829.08
2023-12-23T19:13:39.245Z,98829.15
2023-12-23T19:16:11.111Z,98831.30
2023-12-23T19:18:42.307Z,98834.33
2023-12-23T19:21:11.438Z,98838.79
2023-12-23T19:23:40.529Z,98840.83
2023-12-23T19:26:10.065Z,98844.40
2023-12-23T19:28:38.839Z,98843.98
2023-12-23T19:31:07.836Z,98846.45
2023-12-23T19:33:37.073Z,98851.76
2023-12-23T19:36:07.804Z,98851.75
2023-12-23T19:38:38.527Z,98855.63
2023-12-23T19:41:07.246Z,98856.52
2023-12-23T19:43:36.304Z,98853.81
2023-12-23T19:46:07.193Z,98852.89
2023-12-23T19:48:36.636Z,98857.42
2023-12-23T19:51:05.514Z,98864.98
2023-12-23T19:53:34.506Z,98867.36
2023-12-23T19:56:04.449Z,98869.35
2023-12-23T19:58:33.242Z,98871.02
2023-12-23T20:01:02.612Z,98868.96
2023-12-23T20:03:31.918Z,98873.30
2023-12-23T20:06:00.929Z,98877.10
2023-12-23T20:08:30.547Z,98886.58
2023-12-23T20:11:00.064Z,98886.08
2023-12-23T20:13:29.599Z,98882.67
2023-12-23T20:15:59.581Z,98883.99
2023-12-23T20:18:30.046Z,98886.59
2023-12-23T20:21:00.329Z,98890.02
2023-12-23T20:23:29.259Z,98892.56
2023-12-23T20:25:58.409Z,98897.27
2023-12-23T20:28:27.145Z,98897.52
2023-12-23T20:30:56.056Z,98892.71
2023-12-23T20:33:25.665Z,98887.04
2023-12-23T20:35:55.925Z,98889.23
2023-12-23T20:38:26.895Z,98898.48
2023-12-23T20:40:56.411Z,98903.45
2023-12-23T20:43:27.388Z,98904.19
2023-12-23T20:45:56.811Z,98897.37
2023-12-23T20:48:29.204Z,98903.86
2023-12-23T20:50:59.108Z,98913.27
2023-12-23T20:53:29.631Z,98925.87
2023-12-23T20:56:01.755Z,98933.16
2023-12-23T20:58:34.402Z,98945.09
2023-12-23T21:01:08.985Z,98947.46
2023-12-23T21:03:40.779Z,98952.13
2023-12-23T21:06:10.517Z,98948.66
2023-12-23T21:08:39.834Z,98941.94
2023-12-23T21:11:09.297Z,98944.34
2023-12-23T21:13:38.972Z,98946.42
2023-12-23T21:16:13.713Z,98945.81
2023-12-23T21:18:45.833Z,98943.55
2023-12-23T21:21:16.017Z,98944.31
2023-12-23T21:23:45.436Z,98940.41
2023-12-23T21:26:23.658Z,98939.79
2023-12-23T21:28:54.782Z,98943.34
2023-12-23T21:31:24.364Z,98949.91
2023-12-23T21:33:54.097Z,98951.08
2023-12-23T21:36:22.928Z,98955.80
2023-12-23T21:38:53.077Z,98958.28
2023-12-23T21:41:22.563Z,98953.15
2023-12-23T21:43:51.957Z,98962.72
2023-12-23T21:46:21.409Z,98966.98
2023-12-23T21:48:50.828Z,98968.16
2023-12-23T21:51:21.970Z,98969.27
2023-12-23T21:53:51.782Z,98972.43
2023-12-23T21:56:20.702Z,98979.61
2023-12-23T21:58:49.944Z,98979.70
2023-12-23T22:01:19.827Z,98984.33
2023-12-23T22:03:50.248Z,98985.75
2023-12-23T22:06:21.767Z,98989.23
2023-12-23T22:08:52.248Z,98996.48
2023-12-23T22:11:22.107Z,98996.02
2023-12-23T22:13:52.180Z,98996.16
2023-12-23T22:16:21.249Z,98999.34
2023-12-23T22:18:50.779Z,99000.47
2023-12-23T22:21:20.102Z,99005.67
2023-12-23T22:23:49.496Z,99006.29
2023-12-23T22:26:19.439Z,99004.00
2023-12-23T22:28:49.005Z,99006.38
2023-12-23T22:31:18.016Z,99004.98
2023-12-23T22:33:47.190Z,99011.77
2023-12-23T22:36:16.319Z,99016.80
2023-12-23T22:38:45.661Z,99018.41
2023-12-23T22:41:14.849Z,99020.96
2023-12-23T22:43:44.275Z,99015.73
2023-12-23T22:46:13.427Z,99015.21
2023-12-23T22:48:42.207Z,99023.77
2023-12-23T22:51:11.408Z,99024.20
2023-12-23T22:53:40.606Z,99023.27
2023-12-23T22:56:09.604Z,99019.59
2023-12-23T22:58:39.786Z,99020.22
2023-12-23T23:01:15.424Z,99021.22
2023-12-23T23:03:44.458Z,99021.13
2023-12-23T23:06:13.269Z,99023.42
2023-12-23T23:08:41.925Z,99023.23
2023-12-23T23:11:11.106Z,99027.02
2023-12-23T23:13:40.567Z,99027.72
2023-12-23T23:16:12.851Z,99023.45
2023-12-23T23:18:42.583Z,99024.60
2023-12-23T23:21:11.252Z,99024.76
2023-12-23T23:23:39.845Z,99032.38
2023-12-23T23:26:09.354Z,99037.39
2023-12-23T23:28:38.126Z,99040.19
2023-12-23T23:31:07.725Z,99038.80
2023-12-23T23:33:36.791Z,99040.77
2023-12-23T23:36:06.041Z,99031.16
2023-12-23T23:38:34.758Z,99032.79
2023-12-23T23:41:03.683Z,99038.27
2023-12-23T23:43:33.504Z,99038.84
2023-12-23T23:46:02.011Z,99031.68
2023-12-23T23:48:30.707Z,99036.99
2023-12-23T23:50:59.472Z,99040.16
2023-12-23T23:53:28.409Z,99039.52
2023-12-23T23:55:57.498Z,99043.68
2023-12-23T23:58:26.349Z,99048.60
